sensor_id;sensor_type;location;lat;lon;timestamp;temperature;humidity
10901;DHT22;5503;53.208;10.392;2023-03-01T00:01:08;-0.40;1.00
10901;DHT22;5503;53.208;10.392;2023-03-01T00:03:36;-0.30;1.00
10901;DHT22;5503;53.208;10.392;2023-03-01T00:06:03;-0.50;1.00
10901;DHT22;5503;53.208;10.392;2023-03-01T00:08:33;-0.40;1.00
10901;DHT22;5503;53.208;10.392;2023-03-01T00:11:01;-0.30;1.00
10901;DHT22;5503;53.208;10.392;2023-03-01T00:13:29;-0.20;1.00
10901;DHT22;5503;53.208;10.392;2023-03-01T00:15:56;-0.40;1.00
10901;DHT22;5503;53.208;10.392;2023-03-01T00:18:23;-0.70;1.00
10901;DHT22;5503;53.208;10.392;2023-03-01T00:20:50;-1.10;1.00
10901;DHT22;5503;53.208;10.392;2023-03-01T00:23:18;-1.10;1.00
10901;DHT22;5503;53.208;10.392;2023-03-01T00:25:47;-1.10;1.00
10901;DHT22;5503;53.208;10.392;2023-03-01T00:28:14;-1.00;1.00
10901;DHT22;5503;53.208;10.392;2023-03-01T00:30:41;-1.00;1.00
10901;DHT22;5503;53.208;10.392;2023-03-01T00:33:08;-0.90;1.00
10901;DHT22;5503;53.208;10.392;2023-03-01T00:35:35;-0.80;1.00
10901;DHT22;5503;53.208;10.392;2023-03-01T00:38:03;-0.60;1.00
10901;DHT22;5503;53.208;10.392;2023-03-01T00:40:32;-0.50;1.00
10901;DHT22;5503;53.208;10.392;2023-03-01T00:43:01;-0.70;1.00
10901;DHT22;5503;53.208;10.392;2023-03-01T00:45:28;-1.00;1.00
10901;DHT22;5503;53.208;10.392;2023-03-01T00:47:56;-1.20;1.00
10901;DHT22;5503;53.208;10.392;2023-03-01T00:50:24;-1.40;1.00
10901;DHT22;5503;53.208;10.392;2023-03-01T00:52:53;-1.20;1.00
10901;DHT22;5503;53.208;10.392;2023-03-01T00:55:20;-1.30;1.00
10901;DHT22;5503;53.208;10.392;2023-03-01T00:57:47;-1.20;1.00
10901;DHT22;5503;53.208;10.392;2023-03-01T01:00:16;-1.10;1.00
10901;DHT22;5503;53.208;10.392;2023-03-01T01:02:44;-1.00;1.00
10901;DHT22;5503;53.208;10.392;2023-03-01T01:05:11;-0.70;1.00
10901;DHT22;5503;53.208;10.392;2023-03-01T01:07:39;-0.70;1.00
10901;DHT22;5503;53.208;10.392;2023-03-01T01:10:07;-0.90;1.00
10901;DHT22;5503;53.208;10.392;2023-03-01T01:12:38;-0.90;1.00
10901;DHT22;5503;53.208;10.392;2023-03-01T01:15:06;1.10;1.00
10901;DHT22;5503;53.208;10.392;2023-03-01T01:17:34;-1.10;1.00
10901;DHT22;5503;53.208;10.392;2023-03-01T01:20:01;-1.10;1.00
10901;DHT22;5503;53.208;10.392;2023-03-01T01:22:28;-1.10;1.00
10901;DHT22;5503;53.208;10.392;2023-03-01T01:24:55;-0.90;1.00
10901;DHT22;5503;53.208;10.392;2023-03-01T01:27:23;-0.80;1.00
10901;DHT22;5503;53.208;10.392;2023-03-01T01:29:50;-0.70;1.00
10901;DHT22;5503;53.208;10.392;2023-03-01T01:32:16;-1.10;1.00
10901;DHT22;5503;53.208;10.392;2023-03-01T01:34:45;-1.30;1.00
10901;DHT22;5503;53.208;10.392;2023-03-01T01:37:13;-1.40;1.00
10901;DHT22;5503;53.208;10.392;2023-03-01T01:39:39;-1.30;1.00
10901;DHT22;5503;53.208;10.392;2023-03-01T01:42:13;-1.10;1.00
10901;DHT22;5503;53.208;10.392;2023-03-01T01:44:42;-1.10;1.00
10901;DHT22;5503;53.208;10.392;2023-03-01T01:47:14;-1.40;1.00
10901;DHT22;5503;53.208;10.392;2023-03-01T01:49:47;0.50;1.00
10901;DHT22;5503;53.208;10.392;2023-03-01T01:52:18;-1.30;1.00
10901;DHT22;5503;53.208;10.392;2023-03-01T01:54:50;-1.30;1.00
10901;DHT22;5503;53.208;10.392;2023-03-01T01:57:21;-1.30;1.00
10901;DHT22;5503;53.208;10.392;2023-03-01T01:59:52;-1.10;1.00
10901;DHT22;5503;53.208;10.392;2023-03-01T02:02:20;-1.30;1.00
10901;DHT22;5503;53.208;10.392;2023-03-01T02:04:51;-1.50;1.00
10901;DHT22;5503;53.208;10.392;2023-03-01T02:07:20;-1.60;1.00
10901;DHT22;5503;53.208;10.392;2023-03-01T02:09:50;-1.60;1.00
10901;DHT22;5503;53.208;10.392;2023-03-01T02:12:20;-1.70;1.00
10901;DHT22;5503;53.208;10.392;2023-03-01T02:14:48;-1.70;1.00
10901;DHT22;5503;53.208;10.392;2023-03-01T02:17:16;-1.70;1.00
10901;DHT22;5503;53.208;10.392;2023-03-01T02:19:54;-1.60;1.00
10901;DHT22;5503;53.208;10.392;2023-03-01T02:22:28;-1.60;1.00
10901;DHT22;5503;53.208;10.392;2023-03-01T02:25:04;-1.60;1.00
10901;DHT22;5503;53.208;10.392;2023-03-01T02:27:44;-1.40;1.00
10901;DHT22;5503;53.208;10.392;2023-03-01T02:30:15;-1.60;1.00
10901;DHT22;5503;53.208;10.392;2023-03-01T02:32:43;-1.60;1.00
10901;DHT22;5503;53.208;10.392;2023-03-01T02:35:12;-1.40;1.00
10901;DHT22;5503;53.208;10.392;2023-03-01T02:37:40;-1.20;1.00
10901;DHT22;5503;53.208;10.392;2023-03-01T02:40:10;-1.10;1.00
10901;DHT22;5503;53.208;10.392;2023-03-01T02:42:43;-1.20;1.00
10901;DHT22;5503;53.208;10.392;2023-03-01T02:45:12;-1.40;1.00
10901;DHT22;5503;53.208;10.392;2023-03-01T02:47:40;-2.30;1.00
10901;DHT22;5503;53.208;10.392;2023-03-01T02:50:20;-1.30;1.00
10901;DHT22;5503;53.208;10.392;2023-03-01T02:52:56;-1.30;1.00
10901;DHT22;5503;53.208;10.392;2023-03-01T02:55:25;-2.80;1.00
10901;DHT22;5503;53.208;10.392;2023-03-01T02:57:53;-1.20;1.00
10901;DHT22;5503;53.208;10.392;2023-03-01T03:00:24;-1.20;1.00
10901;DHT22;5503;53.208;10.392;2023-03-01T03:02:54;-1.30;1.00
10901;DHT22;5503;53.208;10.392;2023-03-01T03:05:24;-1.70;1.00
10901;DHT22;5503;53.208;10.392;2023-03-01T03:07:51;-2.10;1.00
10901;DHT22;5503;53.208;10.392;2023-03-01T03:10:21;-2.10;1.00
10901;DHT22;5503;53.208;10.392;2023-03-01T03:12:52;-2.00;1.00
10901;DHT22;5503;53.208;10.392;2023-03-01T03:15:21;-0.90;1.00
10901;DHT22;5503;53.208;10.392;2023-03-01T03:17:49;-0.60;1.00
10901;DHT22;5503;53.208;10.392;2023-03-01T03:20:20;-1.40;1.00
10901;DHT22;5503;53.208;10.392;2023-03-01T03:22:48;-1.30;1.00
10901;DHT22;5503;53.208;10.392;2023-03-01T03:25:16;-1.50;1.00
10901;DHT22;5503;53.208;10.392;2023-03-01T03:27:45;-1.50;1.00
10901;DHT22;5503;53.208;10.392;2023-03-01T03:30:13;-1.60;1.00
10901;DHT22;5503;53.208;10.392;2023-03-01T03:32:42;-1.70;1.00
10901;DHT22;5503;53.208;10.392;2023-03-01T03:35:19;-1.50;1.00
10901;DHT22;5503;53.208;10.392;2023-03-01T03:37:46;0.10;1.00
10901;DHT22;5503;53.208;10.392;2023-03-01T03:40:30;-1.30;1.00
10901;DHT22;5503;53.208;10.392;2023-03-01T03:42:57;-1.20;1.00
10901;DHT22;5503;53.208;10.392;2023-03-01T03:45:24;-0.30;1.00
10901;DHT22;5503;53.208;10.392;2023-03-01T03:47:52;-1.50;1.00
10901;DHT22;5503;53.208;10.392;2023-03-01T03:50:20;-1.40;1.00
10901;DHT22;5503;53.208;10.392;2023-03-01T03:52:47;-1.20;1.00
10901;DHT22;5503;53.208;10.392;2023-03-01T03:55:14;-0.50;1.00
10901;DHT22;5503;53.208;10.392;2023-03-01T03:57:45;-1.30;1.00
10901;DHT22;5503;53.208;10.392;2023-03-01T04:00:19;-1.40;1.00
10901;DHT22;5503;53.208;10.392;2023-03-01T04:02:47;-1.70;1.00
10901;DHT22;5503;53.208;10.392;2023-03-01T04:05:15;-1.90;1.00
10901;DHT22;5503;53.208;10.392;2023-03-01T04:07:45;-2.00;1.00
10901;DHT22;5503;53.208;10.392;2023-03-01T04:10:14;-2.00;1.00
10901;DHT22;5503;53.208;10.392;2023-03-01T04:12:42;0.10;1.00
10901;DHT22;5503;53.208;10.392;2023-03-01T04:15:11;-2.00;1.00
10901;DHT22;5503;53.208;10.392;2023-03-01T04:17:41;-2.00;1.00
10901;DHT22;5503;53.208;10.392;2023-03-01T04:20:10;-2.00;1.00
10901;DHT22;5503;53.208;10.392;2023-03-01T04:22:38;-2.00;1.00
10901;DHT22;5503;53.208;10.392;2023-03-01T04:25:07;-2.20;1.00
10901;DHT22;5503;53.208;10.392;2023-03-01T04:27:40;-2.10;1.00
10901;DHT22;5503;53.208;10.392;2023-03-01T04:30:08;-1.70;1.00
10901;DHT22;5503;53.208;10.392;2023-03-01T04:32:35;-1.70;1.00
10901;DHT22;5503;53.208;10.392;2023-03-01T04:35:02;-1.70;1.00
10901;DHT22;5503;53.208;10.392;2023-03-01T04:37:29;-1.70;1.00
10901;DHT22;5503;53.208;10.392;2023-03-01T04:39:56;-1.70;1.00
10901;DHT22;5503;53.208;10.392;2023-03-01T04:42:25;-2.10;1.00
10901;DHT22;5503;53.208;10.392;2023-03-01T04:44:52;-2.50;1.00
10901;DHT22;5503;53.208;10.392;2023-03-01T04:47:19;-2.50;1.00
10901;DHT22;5503;53.208;10.392;2023-03-01T04:49:46;-2.30;1.00
10901;DHT22;5503;53.208;10.392;2023-03-01T04:52:12;-2.10;1.00
10901;DHT22;5503;53.208;10.392;2023-03-01T04:54:39;-2.20;1.00
10901;DHT22;5503;53.208;10.392;2023-03-01T04:57:06;-2.10;1.00
10901;DHT22;5503;53.208;10.392;2023-03-01T04:59:35;-0.40;1.00
10901;DHT22;5503;53.208;10.392;2023-03-01T05:02:02;-2.00;1.00
10901;DHT22;5503;53.208;10.392;2023-03-01T05:04:30;-1.90;1.00
10901;DHT22;5503;53.208;10.392;2023-03-01T05:06:57;-1.80;1.00
10901;DHT22;5503;53.208;10.392;2023-03-01T05:09:24;-1.70;1.00
10901;DHT22;5503;53.208;10.392;2023-03-01T05:11:51;-1.60;1.00
10901;DHT22;5503;53.208;10.392;2023-03-01T05:14:18;-1.50;1.00
10901;DHT22;5503;53.208;10.392;2023-03-01T05:16:46;-1.60;1.00
10901;DHT22;5503;53.208;10.392;2023-03-01T05:19:13;-1.80;1.00
10901;DHT22;5503;53.208;10.392;2023-03-01T05:21:42;-1.70;1.00
10901;DHT22;5503;53.208;10.392;2023-03-01T05:24:23;-1.60;1.00
10901;DHT22;5503;53.208;10.392;2023-03-01T05:26:50;-1.50;1.00
10901;DHT22;5503;53.208;10.392;2023-03-01T05:29:18;-1.80;1.00
10901;DHT22;5503;53.208;10.392;2023-03-01T05:31:52;-3.10;1.00
10901;DHT22;5503;53.208;10.392;2023-03-01T05:34:23;-1.70;1.00
10901;DHT22;5503;53.208;10.392;2023-03-01T05:36:51;-1.90;1.00
10901;DHT22;5503;53.208;10.392;2023-03-01T05:39:19;-1.90;1.00
10901;DHT22;5503;53.208;10.392;2023-03-01T05:41:48;-2.00;1.00
10901;DHT22;5503;53.208;10.392;2023-03-01T05:44:15;-1.90;1.00
10901;DHT22;5503;53.208;10.392;2023-03-01T05:46:41;-1.90;1.00
10901;DHT22;5503;53.208;10.392;2023-03-01T05:49:10;-2.00;1.00
10901;DHT22;5503;53.208;10.392;2023-03-01T05:51:38;-1.90;1.00
10901;DHT22;5503;53.208;10.392;2023-03-01T05:54:05;0.00;1.00
10901;DHT22;5503;53.208;10.392;2023-03-01T05:56:33;-2.10;1.00
10901;DHT22;5503;53.208;10.392;2023-03-01T05:59:00;-1.40;1.00
10901;DHT22;5503;53.208;10.392;2023-03-01T06:01:27;-2.30;1.00
10901;DHT22;5503;53.208;10.392;2023-03-01T06:03:54;-4.00;1.00
10901;DHT22;5503;53.208;10.392;2023-03-01T06:06:23;-2.60;1.00
10901;DHT22;5503;53.208;10.392;2023-03-01T06:08:50;-2.40;1.00
10901;DHT22;5503;53.208;10.392;2023-03-01T06:11:17;-1.70;1.00
10901;DHT22;5503;53.208;10.392;2023-03-01T06:13:45;-2.00;1.00
10901;DHT22;5503;53.208;10.392;2023-03-01T06:16:12;-1.80;1.00
10901;DHT22;5503;53.208;10.392;2023-03-01T06:18:40;-1.50;1.00
10901;DHT22;5503;53.208;10.392;2023-03-01T06:21:07;-1.60;1.00
10901;DHT22;5503;53.208;10.392;2023-03-01T06:23:36;-1.70;1.00
10901;DHT22;5503;53.208;10.392;2023-03-01T06:26:05;-1.90;1.00
10901;DHT22;5503;53.208;10.392;2023-03-01T06:28:32;-2.10;1.00
10901;DHT22;5503;53.208;10.392;2023-03-01T06:30:59;-1.80;1.00
10901;DHT22;5503;53.208;10.392;2023-03-01T06:33:26;-1.40;1.00
10901;DHT22;5503;53.208;10.392;2023-03-01T06:35:54;-1.20;1.00
10901;DHT22;5503;53.208;10.392;2023-03-01T06:38:21;-1.00;1.00
10901;DHT22;5503;53.208;10.392;2023-03-01T06:40:53;0.00;1.00
10901;DHT22;5503;53.208;10.392;2023-03-01T06:43:20;-0.80;1.00
10901;DHT22;5503;53.208;10.392;2023-03-01T06:45:47;-0.90;1.00
10901;DHT22;5503;53.208;10.392;2023-03-01T06:48:14;-0.80;1.00
10901;DHT22;5503;53.208;10.392;2023-03-01T06:50:41;-0.80;1.00
10901;DHT22;5503;53.208;10.392;2023-03-01T06:53:08;-1.00;1.00
10901;DHT22;5503;53.208;10.392;2023-03-01T06:55:35;-0.50;1.00
10901;DHT22;5503;53.208;10.392;2023-03-01T06:58:03;0.20;1.00
10901;DHT22;5503;53.208;10.392;2023-03-01T07:00:31;-1.00;1.00
10901;DHT22;5503;53.208;10.392;2023-03-01T07:02:59;-0.90;1.00
10901;DHT22;5503;53.208;10.392;2023-03-01T07:05:27;-1.70;1.00
10901;DHT22;5503;53.208;10.392;2023-03-01T07:07:54;-0.70;1.00
10901;DHT22;5503;53.208;10.392;2023-03-01T07:10:22;-0.50;1.00
10901;DHT22;5503;53.208;10.392;2023-03-01T07:12:49;-1.10;1.00
10901;DHT22;5503;53.208;10.392;2023-03-01T07:15:17;0.00;1.00
10901;DHT22;5503;53.208;10.392;2023-03-01T07:17:44;0.20;1.00
10901;DHT22;5503;53.208;10.392;2023-03-01T07:20:13;1.40;1.00
10901;DHT22;5503;53.208;10.392;2023-03-01T07:22:41;0.40;1.00
10901;DHT22;5503;53.208;10.392;2023-03-01T07:25:09;1.60;1.00
10901;DHT22;5503;53.208;10.392;2023-03-01T07:27:36;0.50;1.00
10901;DHT22;5503;53.208;10.392;2023-03-01T07:30:04;1.60;1.00
10901;DHT22;5503;53.208;10.392;2023-03-01T07:32:32;0.90;1.00
10901;DHT22;5503;53.208;10.392;2023-03-01T07:34:59;1.80;1.00
10901;DHT22;5503;53.208;10.392;2023-03-01T07:37:26;1.10;1.00
10901;DHT22;5503;53.208;10.392;2023-03-01T07:39:53;0.40;1.00
10901;DHT22;5503;53.208;10.392;2023-03-01T07:42:20;0.70;1.00
10901;DHT22;5503;53.208;10.392;2023-03-01T07:44:47;1.00;1.00
10901;DHT22;5503;53.208;10.392;2023-03-01T07:47:13;1.10;1.00
10901;DHT22;5503;53.208;10.392;2023-03-01T07:49:42;1.40;1.00
10901;DHT22;5503;53.208;10.392;2023-03-01T07:52:11;1.50;1.00
10901;DHT22;5503;53.208;10.392;2023-03-01T07:54:38;1.60;1.00
10901;DHT22;5503;53.208;10.392;2023-03-01T07:57:05;1.60;1.00
10901;DHT22;5503;53.208;10.392;2023-03-01T07:59:31;1.30;1.00
10901;DHT22;5503;53.208;10.392;2023-03-01T08:01:59;1.70;1.00
10901;DHT22;5503;53.208;10.392;2023-03-01T08:04:26;3.20;1.00
10901;DHT22;5503;53.208;10.392;2023-03-01T08:06:55;2.10;1.00
10901;DHT22;5503;53.208;10.392;2023-03-01T08:09:22;2.90;1.00
10901;DHT22;5503;53.208;10.392;2023-03-01T08:11:49;2.40;1.00
10901;DHT22;5503;53.208;10.392;2023-03-01T08:14:16;2.70;1.00
10901;DHT22;5503;53.208;10.392;2023-03-01T08:16:43;2.60;1.00
10901;DHT22;5503;53.208;10.392;2023-03-01T08:19:11;3.30;1.00
10901;DHT22;5503;53.208;10.392;2023-03-01T08:21:38;2.70;1.00
10901;DHT22;5503;53.208;10.392;2023-03-01T08:24:07;3.20;1.00
10901;DHT22;5503;53.208;10.392;2023-03-01T08:26:36;3.20;1.00
10901;DHT22;5503;53.208;10.392;2023-03-01T08:29:03;3.50;1.00
10901;DHT22;5503;53.208;10.392;2023-03-01T08:31:32;3.90;1.00
10901;DHT22;5503;53.208;10.392;2023-03-01T08:34:02;3.80;1.00
10901;DHT22;5503;53.208;10.392;2023-03-01T08:36:31;4.10;1.00
10901;DHT22;5503;53.208;10.392;2023-03-01T08:38:58;4.50;1.00
10901;DHT22;5503;53.208;10.392;2023-03-01T08:41:27;4.30;1.00
10901;DHT22;5503;53.208;10.392;2023-03-01T08:43:55;4.30;1.00
10901;DHT22;5503;53.208;10.392;2023-03-01T08:46:24;4.50;1.00
10901;DHT22;5503;53.208;10.392;2023-03-01T08:48:51;4.60;1.00
10901;DHT22;5503;53.208;10.392;2023-03-01T08:51:19;4.70;1.00
10901;DHT22;5503;53.208;10.392;2023-03-01T08:53:47;4.80;1.00
10901;DHT22;5503;53.208;10.392;2023-03-01T08:56:14;4.80;1.00
10901;DHT22;5503;53.208;10.392;2023-03-01T08:58:46;5.00;1.00
10901;DHT22;5503;53.208;10.392;2023-03-01T09:01:15;5.10;1.00
10901;DHT22;5503;53.208;10.392;2023-03-01T09:03:42;5.20;1.00
10901;DHT22;5503;53.208;10.392;2023-03-01T09:06:10;5.20;1.00
10901;DHT22;5503;53.208;10.392;2023-03-01T09:08:38;5.40;1.00
10901;DHT22;5503;53.208;10.392;2023-03-01T09:11:08;5.50;1.00
10901;DHT22;5503;53.208;10.392;2023-03-01T09:13:35;5.50;1.00
10901;DHT22;5503;53.208;10.392;2023-03-01T09:16:05;5.20;1.00
10901;DHT22;5503;53.208;10.392;2023-03-01T09:18:33;5.00;1.00
10901;DHT22;5503;53.208;10.392;2023-03-01T09:21:02;5.00;1.00
10901;DHT22;5503;53.208;10.392;2023-03-01T09:23:33;5.10;1.00
10901;DHT22;5503;53.208;10.392;2023-03-01T09:25:59;5.40;1.00
10901;DHT22;5503;53.208;10.392;2023-03-01T09:28:26;5.50;1.00
10901;DHT22;5503;53.208;10.392;2023-03-01T09:30:53;5.80;1.00
10901;DHT22;5503;53.208;10.392;2023-03-01T09:33:21;6.00;1.00
10901;DHT22;5503;53.208;10.392;2023-03-01T09:35:48;6.20;1.00
10901;DHT22;5503;53.208;10.392;2023-03-01T09:38:15;6.50;1.00
10901;DHT22;5503;53.208;10.392;2023-03-01T09:40:43;6.50;1.00
10901;DHT22;5503;53.208;10.392;2023-03-01T09:43:18;6.40;1.00
10901;DHT22;5503;53.208;10.392;2023-03-01T09:45:50;6.30;1.00
10901;DHT22;5503;53.208;10.392;2023-03-01T09:48:23;6.30;1.00
10901;DHT22;5503;53.208;10.392;2023-03-01T09:50:51;6.60;1.00
10901;DHT22;5503;53.208;10.392;2023-03-01T09:53:20;6.90;1.00
10901;DHT22;5503;53.208;10.392;2023-03-01T09:55:52;6.70;1.00
10901;DHT22;5503;53.208;10.392;2023-03-01T09:58:37;6.70;1.00
10901;DHT22;5503;53.208;10.392;2023-03-01T10:01:18;7.30;1.00
10901;DHT22;5503;53.208;10.392;2023-03-01T10:04:16;6.40;1.00
10901;DHT22;5503;53.208;10.392;2023-03-01T10:06:51;6.50;1.00
10901;DHT22;5503;53.208;10.392;2023-03-01T10:09:21;6.50;1.00
10901;DHT22;5503;53.208;10.392;2023-03-01T10:11:51;6.50;1.00
10901;DHT22;5503;53.208;10.392;2023-03-01T10:14:30;6.50;1.00
10901;DHT22;5503;53.208;10.392;2023-03-01T10:17:02;6.50;1.00
10901;DHT22;5503;53.208;10.392;2023-03-01T10:19:33;6.70;1.00
10901;DHT22;5503;53.208;10.392;2023-03-01T10:22:05;6.90;1.00
10901;DHT22;5503;53.208;10.392;2023-03-01T10:24:37;6.90;1.00
10901;DHT22;5503;53.208;10.392;2023-03-01T10:27:07;7.80;1.00
10901;DHT22;5503;53.208;10.392;2023-03-01T10:29:39;6.90;1.00
10901;DHT22;5503;53.208;10.392;2023-03-01T10:32:09;7.00;1.00
10901;DHT22;5503;53.208;10.392;2023-03-01T10:34:38;7.00;1.00
10901;DHT22;5503;53.208;10.392;2023-03-01T10:37:11;7.10;1.00
10901;DHT22;5503;53.208;10.392;2023-03-01T10:39:55;7.30;1.00
10901;DHT22;5503;53.208;10.392;2023-03-01T10:42:26;7.40;1.00
10901;DHT22;5503;53.208;10.392;2023-03-01T10:44:54;7.80;1.00
10901;DHT22;5503;53.208;10.392;2023-03-01T10:47:24;8.30;1.00
10901;DHT22;5503;53.208;10.392;2023-03-01T10:49:58;8.30;1.00
10901;DHT22;5503;53.208;10.392;2023-03-01T10:52:29;8.00;1.00
10901;DHT22;5503;53.208;10.392;2023-03-01T10:54:58;7.70;1.00
10901;DHT22;5503;53.208;10.392;2023-03-01T10:57:32;7.80;1.00
10901;DHT22;5503;53.208;10.392;2023-03-01T11:00:15;7.80;1.00
10901;DHT22;5503;53.208;10.392;2023-03-01T11:02:47;7.80;1.00
10901;DHT22;5503;53.208;10.392;2023-03-01T11:05:20;8.60;1.00
10901;DHT22;5503;53.208;10.392;2023-03-01T11:07:51;7.60;1.00
10901;DHT22;5503;53.208;10.392;2023-03-01T11:10:23;8.20;1.00
10901;DHT22;5503;53.208;10.392;2023-03-01T11:12:51;8.30;1.00
10901;DHT22;5503;53.208;10.392;2023-03-01T11:15:24;8.60;1.00
10901;DHT22;5503;53.208;10.392;2023-03-01T11:17:52;8.40;1.00
10901;DHT22;5503;53.208;10.392;2023-03-01T11:20:25;9.00;1.00
10901;DHT22;5503;53.208;10.392;2023-03-01T11:22:55;8.30;1.00
10901;DHT22;5503;53.208;10.392;2023-03-01T11:25:25;8.60;1.00
10901;DHT22;5503;53.208;10.392;2023-03-01T11:27:53;8.20;1.00
10901;DHT22;5503;53.208;10.392;2023-03-01T11:30:24;8.10;1.00
10901;DHT22;5503;53.208;10.392;2023-03-01T11:33:01;7.30;1.00
10901;DHT22;5503;53.208;10.392;2023-03-01T11:35:32;8.30;1.00
10901;DHT22;5503;53.208;10.392;2023-03-01T11:38:15;8.20;1.00
10901;DHT22;5503;53.208;10.392;2023-03-01T11:40:46;8.50;1.00
10901;DHT22;5503;53.208;10.392;2023-03-01T11:43:22;8.40;1.00
10901;DHT22;5503;53.208;10.392;2023-03-01T11:52:16;8.50;1.00
10901;DHT22;5503;53.208;10.392;2023-03-01T11:54:57;8.70;1.00
10901;DHT22;5503;53.208;10.392;2023-03-01T11:57:41;8.80;1.00
10901;DHT22;5503;53.208;10.392;2023-03-01T12:00:34;8.70;1.00
10901;DHT22;5503;53.208;10.392;2023-03-01T12:03:25;9.20;1.00
10901;DHT22;5503;53.208;10.392;2023-03-01T12:06:18;9.40;1.00
10901;DHT22;5503;53.208;10.392;2023-03-01T12:09:02;9.50;1.00
10901;DHT22;5503;53.208;10.392;2023-03-01T12:11:40;9.20;1.00
10901;DHT22;5503;53.208;10.392;2023-03-01T12:14:30;8.90;1.00
10901;DHT22;5503;53.208;10.392;2023-03-01T12:17:18;8.80;1.00
10901;DHT22;5503;53.208;10.392;2023-03-01T12:20:02;8.90;1.00
10901;DHT22;5503;53.208;10.392;2023-03-01T12:22:42;9.00;1.00
10901;DHT22;5503;53.208;10.392;2023-03-01T12:25:32;9.00;1.00
10901;DHT22;5503;53.208;10.392;2023-03-01T12:28:28;9.30;1.00
10901;DHT22;5503;53.208;10.392;2023-03-01T12:31:23;9.60;1.00
10901;DHT22;5503;53.208;10.392;2023-03-01T12:33:58;9.50;1.00
10901;DHT22;5503;53.208;10.392;2023-03-01T12:36:45;9.20;1.00
10901;DHT22;5503;53.208;10.392;2023-03-01T12:39:33;10.20;1.00
10901;DHT22;5503;53.208;10.392;2023-03-01T12:42:12;9.50;1.00
10901;DHT22;5503;53.208;10.392;2023-03-01T12:45:12;9.50;1.00
10901;DHT22;5503;53.208;10.392;2023-03-01T12:47:54;9.50;1.00
10901;DHT22;5503;53.208;10.392;2023-03-01T12:50:24;9.70;1.00
10901;DHT22;5503;53.208;10.392;2023-03-01T12:52:54;9.80;1.00
10901;DHT22;5503;53.208;10.392;2023-03-01T12:55:28;10.20;1.00
10901;DHT22;5503;53.208;10.392;2023-03-01T12:58:04;10.50;1.00
10901;DHT22;5503;53.208;10.392;2023-03-01T13:00:37;10.50;1.00
10901;DHT22;5503;53.208;10.392;2023-03-01T13:03:12;10.30;1.00
10901;DHT22;5503;53.208;10.392;2023-03-01T13:05:48;10.10;1.00
10901;DHT22;5503;53.208;10.392;2023-03-01T13:08:24;10.10;1.00
10901;DHT22;5503;53.208;10.392;2023-03-01T13:10:58;9.80;1.00
10901;DHT22;5503;53.208;10.392;2023-03-01T13:13:27;9.40;1.00
10901;DHT22;5503;53.208;10.392;2023-03-01T13:15:55;9.10;1.00
10901;DHT22;5503;53.208;10.392;2023-03-01T13:18:30;9.40;1.00
10901;DHT22;5503;53.208;10.392;2023-03-01T13:20:59;10.80;1.00
10901;DHT22;5503;53.208;10.392;2023-03-01T13:23:30;9.90;1.00
10901;DHT22;5503;53.208;10.392;2023-03-01T13:26:12;10.30;1.00
10901;DHT22;5503;53.208;10.392;2023-03-01T13:28:47;10.80;1.00
10901;DHT22;5503;53.208;10.392;2023-03-01T13:34:49;11.80;1.00
10901;DHT22;5503;53.208;10.392;2023-03-01T13:37:31;11.90;1.00
10901;DHT22;5503;53.208;10.392;2023-03-01T13:40:01;11.70;1.00
10901;DHT22;5503;53.208;10.392;2023-03-01T13:42:39;11.80;1.00
10901;DHT22;5503;53.208;10.392;2023-03-01T13:45:20;11.20;1.00
10901;DHT22;5503;53.208;10.392;2023-03-01T13:47:52;11.40;1.00
10901;DHT22;5503;53.208;10.392;2023-03-01T13:50:22;12.00;1.00
10901;DHT22;5503;53.208;10.392;2023-03-01T13:52:53;11.90;1.00
10901;DHT22;5503;53.208;10.392;2023-03-01T13:55:27;11.50;1.00
10901;DHT22;5503;53.208;10.392;2023-03-01T13:58:00;11.30;1.00
10901;DHT22;5503;53.208;10.392;2023-03-01T14:00:32;12.60;1.00
10901;DHT22;5503;53.208;10.392;2023-03-01T14:03:10;11.00;1.00
10901;DHT22;5503;53.208;10.392;2023-03-01T14:05:38;11.50;1.00
10901;DHT22;5503;53.208;10.392;2023-03-01T14:08:18;12.00;1.00
10901;DHT22;5503;53.208;10.392;2023-03-01T14:11:04;11.40;1.00
10901;DHT22;5503;53.208;10.392;2023-03-01T14:13:46;12.60;1.00
10901;DHT22;5503;53.208;10.392;2023-03-01T14:16:24;11.60;1.00
10901;DHT22;5503;53.208;10.392;2023-03-01T14:19:02;11.50;1.00
10901;DHT22;5503;53.208;10.392;2023-03-01T14:21:33;11.50;1.00
10901;DHT22;5503;53.208;10.392;2023-03-01T14:24:02;11.30;1.00
10901;DHT22;5503;53.208;10.392;2023-03-01T14:26:30;11.30;1.00
10901;DHT22;5503;53.208;10.392;2023-03-01T14:28:58;11.20;1.00
10901;DHT22;5503;53.208;10.392;2023-03-01T14:31:47;11.40;1.00
10901;DHT22;5503;53.208;10.392;2023-03-01T14:34:19;11.30;1.00
10901;DHT22;5503;53.208;10.392;2023-03-01T14:36:46;11.10;1.00
10901;DHT22;5503;53.208;10.392;2023-03-01T14:39:18;10.90;1.00
10901;DHT22;5503;53.208;10.392;2023-03-01T14:41:46;10.70;1.00
10901;DHT22;5503;53.208;10.392;2023-03-01T14:44:16;10.80;1.00
10901;DHT22;5503;53.208;10.392;2023-03-01T14:46:52;11.00;1.00
10901;DHT22;5503;53.208;10.392;2023-03-01T14:49:21;11.30;1.00
10901;DHT22;5503;53.208;10.392;2023-03-01T14:51:53;11.30;1.00
10901;DHT22;5503;53.208;10.392;2023-03-01T14:54:24;11.20;1.00
10901;DHT22;5503;53.208;10.392;2023-03-01T14:56:52;11.00;1.00
10901;DHT22;5503;53.208;10.392;2023-03-01T14:59:22;10.50;1.00
10901;DHT22;5503;53.208;10.392;2023-03-01T15:01:52;10.30;1.00
10901;DHT22;5503;53.208;10.392;2023-03-01T15:04:20;10.70;1.00
10901;DHT22;5503;53.208;10.392;2023-03-01T15:06:50;10.80;1.00
10901;DHT22;5503;53.208;10.392;2023-03-01T15:09:17;10.90;1.00
10901;DHT22;5503;53.208;10.392;2023-03-01T15:11:45;10.80;1.00
10901;DHT22;5503;53.208;10.392;2023-03-01T15:14:36;10.70;1.00
10901;DHT22;5503;53.208;10.392;2023-03-01T15:17:21;10.50;1.00
10901;DHT22;5503;53.208;10.392;2023-03-01T15:19:52;10.30;1.00
10901;DHT22;5503;53.208;10.392;2023-03-01T15:22:20;10.30;1.00
10901;DHT22;5503;53.208;10.392;2023-03-01T15:24:48;10.40;1.00
10901;DHT22;5503;53.208;10.392;2023-03-01T15:27:17;10.70;1.00
10901;DHT22;5503;53.208;10.392;2023-03-01T15:29:49;10.80;1.00
10901;DHT22;5503;53.208;10.392;2023-03-01T15:32:30;10.70;1.00
10901;DHT22;5503;53.208;10.392;2023-03-01T15:34:58;10.70;1.00
10901;DHT22;5503;53.208;10.392;2023-03-01T15:37:40;10.40;1.00
10901;DHT22;5503;53.208;10.392;2023-03-01T15:40:21;10.30;1.00
10901;DHT22;5503;53.208;10.392;2023-03-01T15:42:50;10.20;1.00
10901;DHT22;5503;53.208;10.392;2023-03-01T15:45:23;10.00;1.00
10901;DHT22;5503;53.208;10.392;2023-03-01T15:47:55;9.80;1.00
10901;DHT22;5503;53.208;10.392;2023-03-01T15:50:26;9.60;1.00
10901;DHT22;5503;53.208;10.392;2023-03-01T15:52:53;9.80;1.00
10901;DHT22;5503;53.208;10.392;2023-03-01T15:55:22;9.90;1.00
10901;DHT22;5503;53.208;10.392;2023-03-01T15:57:49;9.90;1.00
10901;DHT22;5503;53.208;10.392;2023-03-01T16:00:18;10.10;1.00
10901;DHT22;5503;53.208;10.392;2023-03-01T16:02:45;10.20;1.00
10901;DHT22;5503;53.208;10.392;2023-03-01T16:05:21;9.90;1.00
10901;DHT22;5503;53.208;10.392;2023-03-01T16:07:48;10.20;1.00
10901;DHT22;5503;53.208;10.392;2023-03-01T16:10:16;9.90;1.00
10901;DHT22;5503;53.208;10.392;2023-03-01T16:12:43;9.90;1.00
10901;DHT22;5503;53.208;10.392;2023-03-01T16:15:16;9.90;1.00
10901;DHT22;5503;53.208;10.392;2023-03-01T16:17:43;9.80;1.00
10901;DHT22;5503;53.208;10.392;2023-03-01T16:20:11;9.70;1.00
10901;DHT22;5503;53.208;10.392;2023-03-01T16:22:42;9.70;1.00
10901;DHT22;5503;53.208;10.392;2023-03-01T16:25:10;9.70;1.00